sensor_id;sensor_type;location;lat;lon;timestamp;P1;durP1;ratioP1;P2;durP2;ratioP2
11699;SDS011;5906;51.660;6.674;2024-03-23T00:54:30;8.87;;;3.13;;
11699;SDS011;5906;51.660;6.674;2024-03-23T00:56:56;12.57;;;3.53;;
11699;SDS011;5906;51.660;6.674;2024-03-23T00:59:22;4.03;;;2.87;;
11699;SDS011;5906;51.660;6.674;2024-03-23T01:01:52;6.57;;;3.07;;
11699;SDS011;5906;51.660;6.674;2024-03-23T01:04:19;4.93;;;2.77;;
11699;SDS011;5906;51.660;6.674;2024-03-23T01:06:45;6.13;;;3.00;;
11699;SDS011;5906;51.660;6.674;2024-03-23T01:09:11;3.97;;;3.17;;
11699;SDS011;5906;51.660;6.674;2024-03-23T01:11:37;15.93;;;3.30;;
11699;SDS011;5906;51.660;6.674;2024-03-23T01:14:03;3.87;;;3.33;;
11699;SDS011;5906;51.660;6.674;2024-03-23T01:16:29;7.23;;;3.17;;
11699;SDS011;5906;51.660;6.674;2024-03-23T01:18:55;7.50;;;3.83;;
11699;SDS011;5906;51.660;6.674;2024-03-23T01:21:21;6.60;;;3.67;;
11699;SDS011;5906;51.660;6.674;2024-03-23T01:23:47;8.67;;;3.90;;
11699;SDS011;5906;51.660;6.674;2024-03-23T01:26:13;6.93;;;3.07;;
11699;SDS011;5906;51.660;6.674;2024-03-23T01:28:40;6.03;;;3.10;;
11699;SDS011;5906;51.660;6.674;2024-03-23T01:31:06;5.83;;;3.33;;
11699;SDS011;5906;51.660;6.674;2024-03-23T01:33:32;8.27;;;3.10;;
11699;SDS011;5906;51.660;6.674;2024-03-23T01:35:58;8.27;;;3.30;;
11699;SDS011;5906;51.660;6.674;2024-03-23T01:38:25;6.60;;;3.13;;
11699;SDS011;5906;51.660;6.674;2024-03-23T01:40:59;6.60;;;3.30;;
11699;SDS011;5906;51.660;6.674;2024-03-23T01:43:25;9.20;;;3.10;;
11699;SDS011;5906;51.660;6.674;2024-03-23T01:45:52;5.17;;;3.03;;
11699;SDS011;5906;51.660;6.674;2024-03-23T01:48:19;5.23;;;2.90;;
11699;SDS011;5906;51.660;6.674;2024-03-23T01:50:46;5.60;;;3.03;;
11699;SDS011;5906;51.660;6.674;2024-03-23T01:53:13;5.57;;;3.40;;
11699;SDS011;5906;51.660;6.674;2024-03-23T01:55:42;4.50;;;2.87;;
11699;SDS011;5906;51.660;6.674;2024-03-23T01:58:09;5.40;;;3.17;;
11699;SDS011;5906;51.660;6.674;2024-03-23T02:00:35;2.97;;;2.67;;
11699;SDS011;5906;51.660;6.674;2024-03-23T02:03:01;10.60;;;2.90;;
11699;SDS011;5906;51.660;6.674;2024-03-23T02:05:27;3.67;;;2.77;;
11699;SDS011;5906;51.660;6.674;2024-03-23T02:07:53;3.53;;;2.90;;
11699;SDS011;5906;51.660;6.674;2024-03-23T02:10:19;7.57;;;3.10;;
11699;SDS011;5906;51.660;6.674;2024-03-23T02:12:45;3.20;;;2.90;;
11699;SDS011;5906;51.660;6.674;2024-03-23T02:15:12;5.53;;;2.93;;
11699;SDS011;5906;51.660;6.674;2024-03-23T02:17:37;6.60;;;3.03;;
11699;SDS011;5906;51.660;6.674;2024-03-23T02:20:04;9.57;;;3.50;;
11699;SDS011;5906;51.660;6.674;2024-03-23T02:22:35;8.90;;;2.93;;
11699;SDS011;5906;51.660;6.674;2024-03-23T02:25:04;8.50;;;3.13;;
11699;SDS011;5906;51.660;6.674;2024-03-23T02:27:31;3.77;;;3.20;;
11699;SDS011;5906;51.660;6.674;2024-03-23T02:29:58;3.33;;;2.50;;
11699;SDS011;5906;51.660;6.674;2024-03-23T02:32:24;4.13;;;2.90;;
11699;SDS011;5906;51.660;6.674;2024-03-23T02:34:50;10.60;;;2.80;;
11699;SDS011;5906;51.660;6.674;2024-03-23T02:37:16;8.03;;;3.50;;
11699;SDS011;5906;51.660;6.674;2024-03-23T02:39:42;5.40;;;3.57;;
11699;SDS011;5906;51.660;6.674;2024-03-23T02:42:08;6.47;;;3.03;;
11699;SDS011;5906;51.660;6.674;2024-03-23T02:44:34;6.20;;;4.07;;
11699;SDS011;5906;51.660;6.674;2024-03-23T02:47:00;10.63;;;3.90;;
11699;SDS011;5906;51.660;6.674;2024-03-23T02:49:26;8.37;;;3.30;;
11699;SDS011;5906;51.660;6.674;2024-03-23T02:51:53;7.03;;;3.47;;
11699;SDS011;5906;51.660;6.674;2024-03-23T02:54:19;8.97;;;3.97;;
11699;SDS011;5906;51.660;6.674;2024-03-23T02:56:45;6.43;;;2.93;;
11699;SDS011;5906;51.660;6.674;2024-03-23T02:59:11;6.73;;;3.40;;
11699;SDS011;5906;51.660;6.674;2024-03-23T03:01:37;8.20;;;3.30;;
11699;SDS011;5906;51.660;6.674;2024-03-23T03:04:03;7.50;;;3.73;;
11699;SDS011;5906;51.660;6.674;2024-03-23T03:06:30;10.07;;;3.67;;
11699;SDS011;5906;51.660;6.674;2024-03-23T03:08:56;6.27;;;3.10;;
11699;SDS011;5906;51.660;6.674;2024-03-23T03:11:23;9.10;;;3.63;;
11699;SDS011;5906;51.660;6.674;2024-03-23T03:13:49;6.93;;;3.77;;
11699;SDS011;5906;51.660;6.674;2024-03-23T03:16:15;3.90;;;3.30;;
11699;SDS011;5906;51.660;6.674;2024-03-23T03:18:40;5.93;;;3.30;;
11699;SDS011;5906;51.660;6.674;2024-03-23T03:21:11;9.47;;;3.40;;
11699;SDS011;5906;51.660;6.674;2024-03-23T03:23:38;12.93;;;4.43;;
11699;SDS011;5906;51.660;6.674;2024-03-23T03:26:04;6.90;;;4.20;;
11699;SDS011;5906;51.660;6.674;2024-03-23T03:28:31;11.37;;;5.70;;
11699;SDS011;5906;51.660;6.674;2024-03-23T03:30:58;7.67;;;3.87;;
11699;SDS011;5906;51.660;6.674;2024-03-23T03:33:26;5.47;;;3.50;;
11699;SDS011;5906;51.660;6.674;2024-03-23T03:35:52;6.50;;;4.90;;
11699;SDS011;5906;51.660;6.674;2024-03-23T03:38:19;5.50;;;3.57;;
11699;SDS011;5906;51.660;6.674;2024-03-23T03:40:45;9.43;;;4.07;;
11699;SDS011;5906;51.660;6.674;2024-03-23T03:43:11;9.40;;;3.73;;
11699;SDS011;5906;51.660;6.674;2024-03-23T03:45:37;11.63;;;4.10;;
11699;SDS011;5906;51.660;6.674;2024-03-23T03:48:03;8.83;;;3.77;;
11699;SDS011;5906;51.660;6.674;2024-03-23T03:50:30;11.20;;;5.47;;
11699;SDS011;5906;51.660;6.674;2024-03-23T03:52:56;10.97;;;4.27;;
11699;SDS011;5906;51.660;6.674;2024-03-23T03:55:22;9.40;;;3.97;;
11699;SDS011;5906;51.660;6.674;2024-03-23T03:57:48;9.53;;;3.90;;
11699;SDS011;5906;51.660;6.674;2024-03-23T04:00:14;9.13;;;4.30;;
11699;SDS011;5906;51.660;6.674;2024-03-23T04:02:41;7.63;;;3.53;;
11699;SDS011;5906;51.660;6.674;2024-03-23T04:05:08;13.70;;;4.17;;
11699;SDS011;5906;51.660;6.674;2024-03-23T04:07:34;6.07;;;4.03;;
11699;SDS011;5906;51.660;6.674;2024-03-23T04:09:59;10.43;;;4.80;;
11699;SDS011;5906;51.660;6.674;2024-03-23T04:12:26;13.23;;;4.40;;
11699;SDS011;5906;51.660;6.674;2024-03-23T04:14:52;6.50;;;4.53;;
11699;SDS011;5906;51.660;6.674;2024-03-23T04:17:19;13.70;;;5.60;;
11699;SDS011;5906;51.660;6.674;2024-03-23T04:19:44;21.53;;;5.43;;
11699;SDS011;5906;51.660;6.674;2024-03-23T04:22:11;11.83;;;4.90;;
11699;SDS011;5906;51.660;6.674;2024-03-23T04:24:37;9.03;;;4.83;;
11699;SDS011;5906;51.660;6.674;2024-03-23T04:27:03;12.23;;;5.77;;
11699;SDS011;5906;51.660;6.674;2024-03-23T04:29:29;12.20;;;5.10;;
11699;SDS011;5906;51.660;6.674;2024-03-23T04:31:55;11.20;;;5.50;;
11699;SDS011;5906;51.660;6.674;2024-03-23T04:34:21;11.30;;;5.47;;
11699;SDS011;5906;51.660;6.674;2024-03-23T04:36:48;16.30;;;5.47;;
11699;SDS011;5906;51.660;6.674;2024-03-23T04:39:14;17.67;;;5.97;;
11699;SDS011;5906;51.660;6.674;2024-03-23T04:41:40;12.17;;;6.07;;
11699;SDS011;5906;51.660;6.674;2024-03-23T04:44:06;12.67;;;5.37;;
11699;SDS011;5906;51.660;6.674;2024-03-23T04:46:32;19.57;;;5.53;;
11699;SDS011;5906;51.660;6.674;2024-03-23T04:48:58;9.97;;;5.90;;
11699;SDS011;5906;51.660;6.674;2024-03-23T04:51:24;13.87;;;6.27;;
11699;SDS011;5906;51.660;6.674;2024-03-23T04:53:51;22.30;;;5.97;;
11699;SDS011;5906;51.660;6.674;2024-03-23T04:56:18;8.97;;;6.23;;
11699;SDS011;5906;51.660;6.674;2024-03-23T04:58:44;16.07;;;6.47;;
11699;SDS011;5906;51.660;6.674;2024-03-23T05:01:13;16.03;;;7.27;;
11699;SDS011;5906;51.660;6.674;2024-03-23T05:03:39;19.47;;;7.10;;
11699;SDS011;5906;51.660;6.674;2024-03-23T05:06:05;20.20;;;7.73;;
11699;SDS011;5906;51.660;6.674;2024-03-23T05:08:31;9.17;;;6.27;;
11699;SDS011;5906;51.660;6.674;2024-03-23T05:10:57;15.80;;;5.80;;
11699;SDS011;5906;51.660;6.674;2024-03-23T05:13:23;12.50;;;5.97;;
11699;SDS011;5906;51.660;6.674;2024-03-23T05:15:52;13.33;;;6.30;;
11699;SDS011;5906;51.660;6.674;2024-03-23T05:18:19;10.63;;;6.00;;
11699;SDS011;5906;51.660;6.674;2024-03-23T05:20:45;14.13;;;6.83;;
11699;SDS011;5906;51.660;6.674;2024-03-23T05:23:11;14.07;;;6.83;;
11699;SDS011;5906;51.660;6.674;2024-03-23T05:25:37;15.60;;;7.27;;
11699;SDS011;5906;51.660;6.674;2024-03-23T05:28:03;9.33;;;6.00;;
11699;SDS011;5906;51.660;6.674;2024-03-23T05:30:30;17.77;;;6.90;;
11699;SDS011;5906;51.660;6.674;2024-03-23T05:32:56;15.97;;;6.87;;
11699;SDS011;5906;51.660;6.674;2024-03-23T05:35:23;12.33;;;7.00;;
11699;SDS011;5906;51.660;6.674;2024-03-23T05:37:48;18.90;;;7.23;;
11699;SDS011;5906;51.660;6.674;2024-03-23T05:40:14;13.50;;;7.67;;
11699;SDS011;5906;51.660;6.674;2024-03-23T05:42:40;20.00;;;8.00;;
11699;SDS011;5906;51.660;6.674;2024-03-23T05:45:07;17.03;;;7.33;;
11699;SDS011;5906;51.660;6.674;2024-03-23T05:47:33;20.23;;;8.40;;
11699;SDS011;5906;51.660;6.674;2024-03-23T05:49:59;25.53;;;7.50;;
11699;SDS011;5906;51.660;6.674;2024-03-23T05:52:25;17.93;;;8.73;;
11699;SDS011;5906;51.660;6.674;2024-03-23T05:54:52;28.17;;;7.80;;
11699;SDS011;5906;51.660;6.674;2024-03-23T05:57:18;22.00;;;8.27;;
11699;SDS011;5906;51.660;6.674;2024-03-23T05:59:45;15.13;;;8.10;;
11699;SDS011;5906;51.660;6.674;2024-03-23T06:02:11;17.47;;;8.90;;
11699;SDS011;5906;51.660;6.674;2024-03-23T06:04:37;26.23;;;9.07;;
11699;SDS011;5906;51.660;6.674;2024-03-23T06:07:03;16.23;;;8.20;;
11699;SDS011;5906;51.660;6.674;2024-03-23T06:09:31;24.97;;;9.60;;
11699;SDS011;5906;51.660;6.674;2024-03-23T06:11:57;21.03;;;9.03;;
11699;SDS011;5906;51.660;6.674;2024-03-23T06:14:24;20.40;;;8.63;;
11699;SDS011;5906;51.660;6.674;2024-03-23T06:16:49;17.67;;;8.10;;
11699;SDS011;5906;51.660;6.674;2024-03-23T06:19:16;19.20;;;7.70;;
11699;SDS011;5906;51.660;6.674;2024-03-23T06:21:45;16.80;;;7.70;;
11699;SDS011;5906;51.660;6.674;2024-03-23T06:24:11;16.93;;;7.47;;
11699;SDS011;5906;51.660;6.674;2024-03-23T06:26:38;24.20;;;9.03;;
11699;SDS011;5906;51.660;6.674;2024-03-23T06:29:04;26.43;;;8.53;;
11699;SDS011;5906;51.660;6.674;2024-03-23T06:31:30;21.17;;;8.63;;
11699;SDS011;5906;51.660;6.674;2024-03-23T06:34:03;21.07;;;7.27;;
11699;SDS011;5906;51.660;6.674;2024-03-23T06:36:28;20.93;;;8.00;;
11699;SDS011;5906;51.660;6.674;2024-03-23T06:38:56;18.93;;;7.83;;
11699;SDS011;5906;51.660;6.674;2024-03-23T06:41:22;14.90;;;8.00;;
11699;SDS011;5906;51.660;6.674;2024-03-23T06:43:48;14.70;;;7.50;;
11699;SDS011;5906;51.660;6.674;2024-03-23T06:46:14;21.80;;;7.90;;
11699;SDS011;5906;51.660;6.674;2024-03-23T06:48:40;15.73;;;7.30;;
11699;SDS011;5906;51.660;6.674;2024-03-23T06:51:06;14.77;;;7.57;;
11699;SDS011;5906;51.660;6.674;2024-03-23T06:53:32;14.10;;;6.73;;
11699;SDS011;5906;51.660;6.674;2024-03-23T06:55:58;17.50;;;6.50;;
11699;SDS011;5906;51.660;6.674;2024-03-23T06:58:25;24.13;;;7.93;;
11699;SDS011;5906;51.660;6.674;2024-03-23T07:00:51;14.63;;;6.70;;
11699;SDS011;5906;51.660;6.674;2024-03-23T07:03:17;12.93;;;6.90;;
11699;SDS011;5906;51.660;6.674;2024-03-23T07:05:43;24.20;;;7.30;;
11699;SDS011;5906;51.660;6.674;2024-03-23T07:08:11;24.90;;;8.07;;
11699;SDS011;5906;51.660;6.674;2024-03-23T07:10:40;23.83;;;7.70;;
11699;SDS011;5906;51.660;6.674;2024-03-23T07:13:06;13.53;;;7.47;;
11699;SDS011;5906;51.660;6.674;2024-03-23T07:15:33;18.80;;;7.17;;
11699;SDS011;5906;51.660;6.674;2024-03-23T07:17:59;24.90;;;7.20;;
11699;SDS011;5906;51.660;6.674;2024-03-23T07:20:25;16.10;;;7.50;;
11699;SDS011;5906;51.660;6.674;2024-03-23T07:22:50;16.90;;;7.77;;
11699;SDS011;5906;51.660;6.674;2024-03-23T07:25:16;20.50;;;6.53;;
11699;SDS011;5906;51.660;6.674;2024-03-23T07:27:42;27.60;;;7.70;;
11699;SDS011;5906;51.660;6.674;2024-03-23T07:30:08;20.50;;;7.37;;
11699;SDS011;5906;51.660;6.674;2024-03-23T07:32:35;15.63;;;7.53;;
11699;SDS011;5906;51.660;6.674;2024-03-23T07:35:01;18.87;;;8.43;;
11699;SDS011;5906;51.660;6.674;2024-03-23T07:37:28;21.10;;;7.80;;
11699;SDS011;5906;51.660;6.674;2024-03-23T07:39:54;23.83;;;8.67;;
11699;SDS011;5906;51.660;6.674;2024-03-23T07:42:20;16.70;;;8.00;;
11699;SDS011;5906;51.660;6.674;2024-03-23T07:44:46;23.57;;;8.20;;
11699;SDS011;5906;51.660;6.674;2024-03-23T07:47:12;29.87;;;7.80;;
11699;SDS011;5906;51.660;6.674;2024-03-23T07:49:37;16.33;;;7.70;;
11699;SDS011;5906;51.660;6.674;2024-03-23T07:52:05;20.77;;;8.67;;
11699;SDS011;5906;51.660;6.674;2024-03-23T07:54:31;14.57;;;7.37;;
11699;SDS011;5906;51.660;6.674;2024-03-23T07:56:57;16.00;;;7.60;;
11699;SDS011;5906;51.660;6.674;2024-03-23T07:59:23;18.47;;;8.73;;
11699;SDS011;5906;51.660;6.674;2024-03-23T08:01:50;16.00;;;8.47;;
11699;SDS011;5906;51.660;6.674;2024-03-23T08:04:16;16.03;;;8.17;;
11699;SDS011;5906;51.660;6.674;2024-03-23T08:06:42;17.03;;;8.20;;
11699;SDS011;5906;51.660;6.674;2024-03-23T08:09:09;15.43;;;7.10;;
11699;SDS011;5906;51.660;6.674;2024-03-23T08:11:35;16.50;;;7.40;;
11699;SDS011;5906;51.660;6.674;2024-03-23T08:14:01;26.37;;;8.17;;
11699;SDS011;5906;51.660;6.674;2024-03-23T08:16:28;19.40;;;7.40;;
11699;SDS011;5906;51.660;6.674;2024-03-23T08:18:54;27.63;;;7.50;;
11699;SDS011;5906;51.660;6.674;2024-03-23T08:21:23;20.10;;;7.13;;
11699;SDS011;5906;51.660;6.674;2024-03-23T08:23:50;18.70;;;7.33;;
11699;SDS011;5906;51.660;6.674;2024-03-23T08:26:16;13.63;;;7.07;;
11699;SDS011;5906;51.660;6.674;2024-03-23T08:28:45;12.50;;;6.60;;
11699;SDS011;5906;51.660;6.674;2024-03-23T08:31:13;18.17;;;6.30;;
11699;SDS011;5906;51.660;6.674;2024-03-23T08:33:40;18.07;;;6.40;;
11699;SDS011;5906;51.660;6.674;2024-03-23T08:36:08;27.80;;;7.43;;
11699;SDS011;5906;51.660;6.674;2024-03-23T08:38:37;19.80;;;8.10;;
11699;SDS011;5906;51.660;6.674;2024-03-23T08:41:04;14.90;;;6.43;;
11699;SDS011;5906;51.660;6.674;2024-03-23T08:43:32;17.63;;;5.70;;
11699;SDS011;5906;51.660;6.674;2024-03-23T08:46:04;24.50;;;6.50;;
11699;SDS011;5906;51.660;6.674;2024-03-23T08:48:31;17.40;;;6.60;;
11699;SDS011;5906;51.660;6.674;2024-03-23T08:51:02;17.70;;;6.00;;
11699;SDS011;5906;51.660;6.674;2024-03-23T08:53:29;21.47;;;6.87;;
11699;SDS011;5906;51.660;6.674;2024-03-23T08:55:56;15.30;;;5.30;;
11699;SDS011;5906;51.660;6.674;2024-03-23T08:58:23;12.70;;;4.43;;
11699;SDS011;5906;51.660;6.674;2024-03-23T09:00:50;11.13;;;4.90;;
11699;SDS011;5906;51.660;6.674;2024-03-23T09:03:17;9.23;;;4.87;;
11699;SDS011;5906;51.660;6.674;2024-03-23T09:05:43;12.17;;;4.37;;
11699;SDS011;5906;51.660;6.674;2024-03-23T09:08:09;13.77;;;4.77;;
11699;SDS011;5906;51.660;6.674;2024-03-23T09:10:39;5.37;;;3.80;;
11699;SDS011;5906;51.660;6.674;2024-03-23T09:13:06;6.90;;;4.27;;
11699;SDS011;5906;51.660;6.674;2024-03-23T09:15:36;13.50;;;5.50;;
11699;SDS011;5906;51.660;6.674;2024-03-23T09:18:03;15.50;;;4.70;;
11699;SDS011;5906;51.660;6.674;2024-03-23T09:20:32;7.87;;;3.90;;
11699;SDS011;5906;51.660;6.674;2024-03-23T09:22:58;11.37;;;4.50;;
11699;SDS011;5906;51.660;6.674;2024-03-23T09:25:24;10.57;;;4.30;;
11699;SDS011;5906;51.660;6.674;2024-03-23T09:27:51;12.57;;;4.27;;
11699;SDS011;5906;51.660;6.674;2024-03-23T09:30:17;9.43;;;4.37;;
11699;SDS011;5906;51.660;6.674;2024-03-23T09:32:45;10.93;;;3.90;;
11699;SDS011;5906;51.660;6.674;2024-03-23T09:35:11;7.63;;;3.63;;
11699;SDS011;5906;51.660;6.674;2024-03-23T09:37:40;10.17;;;3.50;;
11699;SDS011;5906;51.660;6.674;2024-03-23T09:40:10;12.30;;;3.50;;
11699;SDS011;5906;51.660;6.674;2024-03-23T09:42:37;11.10;;;4.33;;
11699;SDS011;5906;51.660;6.674;2024-03-23T09:45:06;13.03;;;4.23;;
11699;SDS011;5906;51.660;6.674;2024-03-23T09:47:41;8.80;;;3.97;;
11699;SDS011;5906;51.660;6.674;2024-03-23T09:50:10;10.50;;;4.20;;
11699;SDS011;5906;51.660;6.674;2024-03-23T09:52:36;10.60;;;4.10;;
11699;SDS011;5906;51.660;6.674;2024-03-23T09:55:03;7.47;;;3.60;;
11699;SDS011;5906;51.660;6.674;2024-03-23T09:57:29;14.77;;;4.47;;
11699;SDS011;5906;51.660;6.674;2024-03-23T09:59:55;10.63;;;3.73;;
11699;SDS011;5906;51.660;6.674;2024-03-23T10:02:23;8.80;;;3.63;;
11699;SDS011;5906;51.660;6.674;2024-03-23T10:08:39;10.27;;;3.37;;
11699;SDS011;5906;51.660;6.674;2024-03-23T10:11:15;14.67;;;3.37;;
11699;SDS011;5906;51.660;6.674;2024-03-23T10:13:42;8.37;;;3.60;;
11699;SDS011;5906;51.660;6.674;2024-03-23T10:16:09;8.13;;;4.27;;
11699;SDS011;5906;51.660;6.674;2024-03-23T10:18:39;7.40;;;3.47;;
11699;SDS011;5906;51.660;6.674;2024-03-23T10:23:31;5.60;;;3.30;;
11699;SDS011;5906;51.660;6.674;2024-03-23T10:29:02;5.53;;;2.83;;
11699;SDS011;5906;51.660;6.674;2024-03-23T10:31:36;8.27;;;2.77;;
11699;SDS011;5906;51.660;6.674;2024-03-23T10:34:02;9.10;;;3.00;;
11699;SDS011;5906;51.660;6.674;2024-03-23T10:36:29;9.50;;;5.10;;
11699;SDS011;5906;51.660;6.674;2024-03-23T10:38:55;7.03;;;3.23;;
11699;SDS011;5906;51.660;6.674;2024-03-23T10:43:51;2.70;;;1.90;;
11699;SDS011;5906;51.660;6.674;2024-03-23T10:46:17;2.27;;;2.17;;
11699;SDS011;5906;51.660;6.674;2024-03-23T10:48:44;3.40;;;2.40;;
11699;SDS011;5906;51.660;6.674;2024-03-23T10:51:10;6.07;;;2.70;;
11699;SDS011;5906;51.660;6.674;2024-03-23T10:53:37;3.10;;;2.40;;
11699;SDS011;5906;51.660;6.674;2024-03-23T10:56:04;2.70;;;2.50;;
11699;SDS011;5906;51.660;6.674;2024-03-23T10:58:49;2.80;;;2.47;;
11699;SDS011;5906;51.660;6.674;2024-03-23T11:01:15;2.73;;;2.53;;
11699;SDS011;5906;51.660;6.674;2024-03-23T11:03:45;2.20;;;2.00;;
11699;SDS011;5906;51.660;6.674;2024-03-23T11:06:32;4.63;;;2.53;;
11699;SDS011;5906;51.660;6.674;2024-03-23T11:09:02;5.40;;;2.70;;
11699;SDS011;5906;51.660;6.674;2024-03-23T11:11:28;4.53;;;2.20;;
11699;SDS011;5906;51.660;6.674;2024-03-23T11:13:57;4.30;;;2.27;;
11699;SDS011;5906;51.660;6.674;2024-03-23T11:16:28;5.33;;;2.40;;
11699;SDS011;5906;51.660;6.674;2024-03-23T11:21:59;6.20;;;2.80;;
11699;SDS011;5906;51.660;6.674;2024-03-23T11:24:25;4.90;;;2.60;;
11699;SDS011;5906;51.660;6.674;2024-03-23T11:26:51;6.00;;;2.70;;
11699;SDS011;5906;51.660;6.674;2024-03-23T11:29:17;6.43;;;2.87;;
11699;SDS011;5906;51.660;6.674;2024-03-23T11:31:47;4.43;;;2.93;;
11699;SDS011;5906;51.660;6.674;2024-03-23T11:34:14;5.93;;;2.60;;
11699;SDS011;5906;51.660;6.674;2024-03-23T11:36:41;12.07;;;2.93;;
11699;SDS011;5906;51.660;6.674;2024-03-23T11:39:15;5.33;;;3.30;;
11699;SDS011;5906;51.660;6.674;2024-03-23T11:41:48;8.67;;;3.30;;
11699;SDS011;5906;51.660;6.674;2024-03-23T11:44:22;7.73;;;2.87;;
11699;SDS011;5906;51.660;6.674;2024-03-23T11:46:49;9.00;;;3.40;;
11699;SDS011;5906;51.660;6.674;2024-03-23T11:49:25;10.17;;;3.20;;
11699;SDS011;5906;51.660;6.674;2024-03-23T11:51:53;8.47;;;3.10;;
11699;SDS011;5906;51.660;6.674;2024-03-23T11:54:20;3.80;;;2.67;;
11699;SDS011;5906;51.660;6.674;2024-03-23T11:56:54;4.70;;;2.83;;
11699;SDS011;5906;51.660;6.674;2024-03-23T12:02:10;8.50;;;2.90;;
11699;SDS011;5906;51.660;6.674;2024-03-23T12:04:39;10.47;;;3.57;;
11699;SDS011;5906;51.660;6.674;2024-03-23T12:07:16;7.20;;;3.30;;
11699;SDS011;5906;51.660;6.674;2024-03-23T12:09:47;9.60;;;3.97;;
11699;SDS011;5906;51.660;6.674;2024-03-23T12:12:28;3.40;;;2.73;;
11699;SDS011;5906;51.660;6.674;2024-03-23T12:15:04;4.73;;;3.07;;
11699;SDS011;5906;51.660;6.674;2024-03-23T12:17:32;7.13;;;3.10;;
11699;SDS011;5906;51.660;6.674;2024-03-23T12:20:00;6.23;;;2.37;;
11699;SDS011;5906;51.660;6.674;2024-03-23T12:22:27;5.00;;;2.20;;
11699;SDS011;5906;51.660;6.674;2024-03-23T12:24:54;5.93;;;2.40;;
11699;SDS011;5906;51.660;6.674;2024-03-23T12:27:21;6.30;;;2.40;;
11699;SDS011;5906;51.660;6.674;2024-03-23T12:29:47;5.43;;;2.30;;
11699;SDS011;5906;51.660;6.674;2024-03-23T12:32:13;8.53;;;3.13;;
11699;SDS011;5906;51.660;6.674;2024-03-23T12:34:40;4.73;;;2.87;;
11699;SDS011;5906;51.660;6.674;2024-03-23T12:37:06;5.50;;;3.07;;
11699;SDS011;5906;51.660;6.674;2024-03-23T12:39:34;5.33;;;2.50;;
11699;SDS011;5906;51.660;6.674;2024-03-23T12:42:01;10.90;;;2.20;;
11699;SDS011;5906;51.660;6.674;2024-03-23T12:44:30;5.87;;;2.00;;
11699;SDS011;5906;51.660;6.674;2024-03-23T12:46:57;5.17;;;2.40;;
11699;SDS011;5906;51.660;6.674;2024-03-23T12:49:23;2.03;;;1.83;;
11699;SDS011;5906;51.660;6.674;2024-03-23T12:51:55;6.30;;;2.23;;
11699;SDS011;5906;51.660;6.674;2024-03-23T12:54:22;4.80;;;2.40;;
11699;SDS011;5906;51.660;6.674;2024-03-23T12:56:48;11.50;;;2.33;;
11699;SDS011;5906;51.660;6.674;2024-03-23T12:59:15;13.33;;;3.03;;
11699;SDS011;5906;51.660;6.674;2024-03-23T13:01:42;10.13;;;2.77;;
11699;SDS011;5906;51.660;6.674;2024-03-23T13:04:09;5.63;;;2.77;;
11699;SDS011;5906;51.660;6.674;2024-03-23T13:06:35;14.23;;;2.87;;
11699;SDS011;5906;51.660;6.674;2024-03-23T13:09:01;12.67;;;2.90;;
11699;SDS011;5906;51.660;6.674;2024-03-23T13:14:10;5.53;;;2.70;;
11699;SDS011;5906;51.660;6.674;2024-03-23T13:16:36;6.03;;;3.00;;
11699;SDS011;5906;51.660;6.674;2024-03-23T13:19:01;4.43;;;2.70;;
11699;SDS011;5906;51.660;6.674;2024-03-23T13:21:28;7.97;;;2.37;;
11699;SDS011;5906;51.660;6.674;2024-03-23T13:23:54;11.80;;;3.47;;
11699;SDS011;5906;51.660;6.674;2024-03-23T13:26:20;4.53;;;2.50;;
11699;SDS011;5906;51.660;6.674;2024-03-23T13:28:46;10.13;;;2.87;;
11699;SDS011;5906;51.660;6.674;2024-03-23T13:31:12;5.37;;;2.63;;
11699;SDS011;5906;51.660;6.674;2024-03-23T13:33:38;2.57;;;2.37;;
11699;SDS011;5906;51.660;6.674;2024-03-23T13:36:05;4.60;;;2.80;;
11699;SDS011;5906;51.660;6.674;2024-03-23T13:38:31;7.80;;;2.27;;
11699;SDS011;5906;51.660;6.674;2024-03-23T13:40:58;6.57;;;2.17;;
11699;SDS011;5906;51.660;6.674;2024-03-23T13:43:25;4.00;;;2.43;;
11699;SDS011;5906;51.660;6.674;2024-03-23T13:45:53;2.43;;;2.23;;
11699;SDS011;5906;51.660;6.674;2024-03-23T13:48:20;8.93;;;2.50;;
11699;SDS011;5906;51.660;6.674;2024-03-23T13:51:09;4.70;;;2.47;;
11699;SDS011;5906;51.660;6.674;2024-03-23T13:53:34;5.10;;;2.97;;
11699;SDS011;5906;51.660;6.674;2024-03-23T13:56:00;5.73;;;2.50;;
11699;SDS011;5906;51.660;6.674;2024-03-23T13:58:26;6.20;;;2.77;;
11699;SDS011;5906;51.660;6.674;2024-03-23T14:00:52;6.13;;;2.90;;
11699;SDS011;5906;51.660;6.674;2024-03-23T14:03:18;5.13;;;3.10;;
11699;SDS011;5906;51.660;6.674;2024-03-23T14:05:45;7.30;;;2.80;;
11699;SDS011;5906;51.660;6.674;2024-03-23T14:08:12;4.30;;;2.30;;
11699;SDS011;5906;51.660;6.674;2024-03-23T14:10:42;2.20;;;2.00;;
11699;SDS011;5906;51.660;6.674;2024-03-23T14:13:08;3.80;;;2.53;;
11699;SDS011;5906;51.660;6.674;2024-03-23T14:15:34;4.67;;;1.93;;
11699;SDS011;5906;51.660;6.674;2024-03-23T14:18:02;3.07;;;2.07;;
11699;SDS011;5906;51.660;6.674;2024-03-23T14:20:28;2.30;;;2.10;;
11699;SDS011;5906;51.660;6.674;2024-03-23T14:22:54;5.93;;;2.87;;
11699;SDS011;5906;51.660;6.674;2024-03-23T14:25:21;2.70;;;2.40;;
11699;SDS011;5906;51.660;6.674;2024-03-23T14:27:52;7.00;;;2.40;;
11699;SDS011;5906;51.660;6.674;2024-03-23T14:30:18;6.10;;;2.30;;
11699;SDS011;5906;51.660;6.674;2024-03-23T14:32:44;4.43;;;2.23;;
11699;SDS011;5906;51.660;6.674;2024-03-23T14:35:10;3.83;;;2.40;;
11699;SDS011;5906;51.660;6.674;2024-03-23T14:37:36;4.17;;;2.53;;
11699;SDS011;5906;51.660;6.674;2024-03-23T14:40:03;2.73;;;2.10;;
11699;SDS011;5906;51.660;6.674;2024-03-23T14:42:29;2.83;;;2.60;;
11699;SDS011;5906;51.660;6.674;2024-03-23T14:44:57;7.13;;;2.50;;
11699;SDS011;5906;51.660;6.674;2024-03-23T14:47:23;7.13;;;2.10;;
11699;SDS011;5906;51.660;6.674;2024-03-23T14:49:49;5.93;;;2.33;;
11699;SDS011;5906;51.660;6.674;2024-03-23T14:52:18;7.40;;;2.40;;
11699;SDS011;5906;51.660;6.674;2024-03-23T14:54:44;8.43;;;2.77;;
11699;SDS011;5906;51.660;6.674;2024-03-23T14:57:10;6.93;;;2.10;;
11699;SDS011;5906;51.660;6.674;2024-03-23T14:59:36;5.93;;;2.33;;
11699;SDS011;5906;51.660;6.674;2024-03-23T15:02:09;2.53;;;2.00;;
11699;SDS011;5906;51.660;6.674;2024-03-23T15:04:34;9.03;;;2.70;;
11699;SDS011;5906;51.660;6.674;2024-03-23T15:07:01;6.93;;;3.50;;
11699;SDS011;5906;51.660;6.674;2024-03-23T15:09:29;5.47;;;2.40;;
11699;SDS011;5906;51.660;6.674;2024-03-23T15:11:54;13.40;;;3.10;;
11699;SDS011;5906;51.660;6.674;2024-03-23T15:14:21;3.57;;;2.40;;
11699;SDS011;5906;51.660;6.674;2024-03-23T15:17:30;12.50;;;3.27;;
11699;SDS011;5906;51.660;6.674;2024-03-23T15:19:41;6.10;;;2.23;;
11699;SDS011;5906;51.660;6.674;2024-03-23T15:22:08;2.97;;;2.50;;
11699;SDS011;5906;51.660;6.674;2024-03-23T15:24:35;3.37;;;2.20;;
11699;SDS011;5906;51.660;6.674;2024-03-23T15:27:04;6.73;;;2.70;;
11699;SDS011;5906;51.660;6.674;2024-03-23T15:29:34;10.37;;;2.77;;
11699;SDS011;5906;51.660;6.674;2024-03-23T15:32:02;7.87;;;2.40;;
11699;SDS011;5906;51.660;6.674;2024-03-23T15:34:28;4.73;;;2.43;;
11699;SDS011;5906;51.660;6.674;2024-03-23T15:36:54;3.77;;;2.70;;
11699;SDS011;5906;51.660;6.674;2024-03-23T15:39:20;4.83;;;2.90;;
11699;SDS011;5906;51.660;6.674;2024-03-23T15:41:49;15.00;;;3.10;;
11699;SDS011;5906;51.660;6.674;2024-03-23T15:44:15;9.20;;;3.43;;
11699;SDS011;5906;51.660;6.674;2024-03-23T15:49:16;7.50;;;2.90;;
11699;SDS011;5906;51.660;6.674;2024-03-23T15:51:46;3.10;;;2.30;;
11699;SDS011;5906;51.660;6.674;2024-03-23T15:54:12;5.80;;;2.47;;
11699;SDS011;5906;51.660;6.674;2024-03-23T15:56:38;9.47;;;2.53;;
11699;SDS011;5906;51.660;6.674;2024-03-23T15:59:04;10.30;;;2.70;;
11699;SDS011;5906;51.660;6.674;2024-03-23T16:01:44;4.33;;;3.17;;
11699;SDS011;5906;51.660;6.674;2024-03-23T16:04:10;6.50;;;2.87;;
11699;SDS011;5906;51.660;6.674;2024-03-23T16:06:40;8.40;;;2.97;;
11699;SDS011;5906;51.660;6.674;2024-03-23T16:09:18;11.40;;;3.23;;
11699;SDS011;5906;51.660;6.674;2024-03-23T16:12:19;9.57;;;4.30;;